Time;durP1;ratioP1;P1;durP2;ratioP2;P2;SDS_P1;SDS_P2;PMS_P1;PMS_P2;Temp;Humidity;BMP_temperature;BMP_pressure;BME280_temperature;BME280_humidity;BME280_pressure;Samples;Min_cycle;Max_cycle;Signal;HPM_P1;HPM_P2
2023/03/19 00:01:26;;;;;;;2.87;2.67;;;12.40;99.90;;;;;;5094047;28;20199;-71
2023/03/19 00:03:52;;;;;;;4.73;3.20;;;12.30;99.90;;;;;;5093885;28;20183;-72
2023/03/19 00:06:18;;;;;;;3.43;3.13;;;12.30;99.90;;;;;;5094016;28;20302;-71
2023/03/19 00:08:43;;;;;;;3.27;3.07;;;12.20;99.90;;;;;;5093923;28;20246;-72
2023/03/19 00:11:12;;;;;;;4.03;3.50;;;12.10;99.90;;;;;;5093936;28;20168;-71
2023/03/19 00:13:38;;;;;;;3.40;3.07;;;12.10;99.90;;;;;;5093509;28;20612;-71
2023/03/19 00:16:05;;;;;;;3.90;3.60;;;12.10;99.90;;;;;;5093577;28;20273;-71
2023/03/19 00:18:31;;;;;;;4.47;3.60;;;12.10;99.90;;;;;;5075815;28;20180;-72
2023/03/19 00:20:57;;;;;;;6.17;4.00;;;12.00;99.90;;;;;;5075627;28;20176;-72
2023/03/19 00:23:23;;;;;;;4.20;3.80;;;11.90;99.90;;;;;;5093724;28;20171;-71
2023/03/19 00:25:49;;;;;;;5.20;4.27;;;11.90;99.90;;;;;;5093411;28;20208;-71
2023/03/19 00:28:14;;;;;;;4.50;4.10;;;11.90;99.90;;;;;;5075042;28;20623;-72
2023/03/19 00:30:40;;;;;;;6.27;4.40;;;11.80;99.90;;;;;;5075347;28;20259;-71
2023/03/19 00:33:06;;;;;;;6.23;4.40;;;11.80;99.90;;;;;;5093442;28;20160;-71
2023/03/19 00:35:32;;;;;;;4.73;3.83;;;11.80;99.90;;;;;;5093568;28;20168;-72
2023/03/19 00:37:58;;;;;;;7.13;4.37;;;11.80;99.90;;;;;;5075632;28;20175;-72
2023/03/19 00:40:24;;;;;;;4.50;4.10;;;11.80;99.90;;;;;;5075321;28;20183;-71
2023/03/19 00:42:49;;;;;;;4.87;4.30;;;11.80;99.90;;;;;;5093021;28;20251;-72
2023/03/19 00:45:15;;;;;;;4.40;4.00;;;11.90;99.90;;;;;;5093369;28;20735;-72
2023/03/19 00:47:41;;;;;;;5.50;4.33;;;11.80;99.90;;;;;;5093371;28;20567;-71
2023/03/19 00:50:07;;;;;;;6.53;4.70;;;11.90;99.90;;;;;;5075110;28;20526;-71
2023/03/19 00:52:33;;;;;;;4.57;4.07;;;11.90;99.90;;;;;;5075462;28;20170;-72
2023/03/19 00:54:59;;;;;;;4.60;4.20;;;12.00;99.90;;;;;;5074792;28;20175;-72
2023/03/19 00:57:25;;;;;;;4.90;4.40;;;12.00;99.90;;;;;;5075242;28;20184;-72
2023/03/19 00:59:51;;;;;;;4.70;4.30;;;12.00;99.90;;;;;;5093209;28;20235;-72
2023/03/19 01:02:17;;;;;;;4.83;4.33;;;12.10;99.90;;;;;;5093152;28;20270;-72
2023/03/19 01:04:42;;;;;;;4.63;4.20;;;12.10;99.90;;;;;;5093160;28;20164;-72
2023/03/19 01:07:08;;;;;;;5.50;4.03;;;12.10;99.90;;;;;;5093174;28;20534;-72
2023/03/19 01:09:34;;;;;;;5.27;4.77;;;12.10;99.90;;;;;;5092943;28;20615;-71
2023/03/19 01:12:03;;;;;;;6.90;4.80;;;12.20;99.90;;;;;;5079117;28;20266;-72
2023/03/19 01:14:30;;;;;;;5.27;4.73;;;12.10;99.90;;;;;;5079111;28;20176;-72
2023/03/19 01:16:56;;;;;;;4.70;4.30;;;12.20;99.90;;;;;;5097034;28;20219;-72
2023/03/19 01:19:22;;;;;;;4.97;4.57;;;12.20;99.90;;;;;;5078849;28;20541;-72
2023/03/19 01:21:48;;;;;;;5.50;5.00;;;12.30;99.90;;;;;;5097296;28;20167;-72
2023/03/19 01:24:15;;;;;;;5.50;5.00;;;12.30;99.90;;;;;;5096766;28;20164;-72
2023/03/19 01:26:42;;;;;;;5.53;5.07;;;12.20;99.90;;;;;;5096858;28;20211;-72
2023/03/19 01:29:08;;;;;;;5.37;4.83;;;12.10;99.90;;;;;;5096974;28;20271;-71
2023/03/19 01:31:34;;;;;;;5.23;4.80;;;12.10;99.90;;;;;;5096905;28;20508;-72
2023/03/19 01:34:00;;;;;;;5.70;4.90;;;12.20;99.90;;;;;;5096994;28;20164;-71
2023/03/19 01:36:26;;;;;;;5.67;4.60;;;12.30;99.90;;;;;;5096974;28;20199;-71
2023/03/19 01:38:52;;;;;;;5.37;4.97;;;12.30;99.90;;;;;;5096299;28;20156;-72
2023/03/19 01:41:18;;;;;;;5.77;5.23;;;12.30;99.90;;;;;;5096538;28;20282;-71
2023/03/19 01:43:45;;;;;;;5.93;5.33;;;12.30;99.90;;;;;;5096784;28;20666;-71
2023/03/19 01:46:27;;;;;;;5.17;4.77;;;12.40;99.90;;;;;;5078540;28;20212;-71
2023/03/19 01:48:59;;;;;;;6.47;5.20;;;12.40;99.90;;;;;;5096547;28;20225;-72
2023/03/19 01:51:33;;;;;;;7.40;4.93;;;12.30;99.90;;;;;;5096519;28;20168;-71
2023/03/19 01:54:03;;;;;;;6.07;5.03;;;12.30;99.90;;;;;;5077942;28;20164;-71
2023/03/19 01:56:35;;;;;;;5.67;5.17;;;12.30;99.90;;;;;;5096610;28;20187;-71
2023/03/19 01:59:24;;;;;;;5.57;5.07;;;12.30;99.90;;;;;;5078120;28;20168;-71
2023/03/19 02:02:00;;;;;;;5.90;5.40;;;12.10;99.90;;;;;;5095557;28;20204;-71
2023/03/19 02:04:26;;;;;;;6.73;5.60;;;12.20;99.90;;;;;;5096365;28;20171;-71
2023/03/19 02:06:55;;;;;;;7.23;5.40;;;12.20;99.90;;;;;;5096220;28;20215;-71
2023/03/19 02:09:21;;;;;;;5.87;5.23;;;12.30;99.90;;;;;;5096005;28;20168;-71
2023/03/19 02:11:48;;;;;;;6.33;5.73;;;12.40;99.90;;;;;;5096193;28;20160;-70
2023/03/19 02:14:14;;;;;;;6.43;5.60;;;12.40;99.90;;;;;;5095998;28;20168;-70
2023/03/19 02:16:40;;;;;;;6.20;5.70;;;12.50;99.90;;;;;;5095787;28;20268;-71
2023/03/19 02:19:12;;;;;;;6.57;5.80;;;12.40;99.90;;;;;;5095996;28;20171;-71
2023/03/19 02:21:37;;;;;;;6.80;6.10;;;12.40;99.90;;;;;;5095056;28;20172;-70
2023/03/19 02:24:15;;;;;;;7.30;6.20;;;12.40;99.90;;;;;;5095571;28;20209;-72
2023/03/19 02:26:42;;;;;;;7.07;6.13;;;12.40;99.90;;;;;;5095732;28;20203;-71
2023/03/19 02:29:08;;;;;;;7.17;6.27;;;12.40;99.90;;;;;;5095632;28;20619;-71
2023/03/19 02:31:35;;;;;;;7.67;6.87;;;12.40;99.90;;;;;;5077411;28;20193;-71
2023/03/19 02:34:05;;;;;;;7.20;6.70;;;12.30;99.90;;;;;;5077525;28;20210;-71
2023/03/19 02:36:41;;;;;;;7.00;6.40;;;12.30;99.90;;;;;;5095392;28;20623;-71
2023/03/19 02:39:22;;;;;;;8.13;7.33;;;12.20;99.90;;;;;;5095509;28;20163;-71
2023/03/19 02:41:49;;;;;;;8.17;7.37;;;12.20;99.90;;;;;;5095465;28;20243;-72
2023/03/19 02:44:18;;;;;;;7.63;6.83;;;12.20;99.90;;;;;;5095272;28;20214;-71
2023/03/19 02:46:44;;;;;;;8.43;7.30;;;12.10;99.90;;;;;;5077121;28;20207;-71
2023/03/19 02:49:10;;;;;;;7.97;7.20;;;12.10;99.90;;;;;;5095337;28;20176;-71
2023/03/19 02:51:36;;;;;;;8.10;7.30;;;12.20;99.90;;;;;;5094989;28;20176;-71
2023/03/19 02:54:02;;;;;;;8.40;7.40;;;12.20;99.90;;;;;;5095133;28;20203;-71
2023/03/19 02:56:28;;;;;;;8.60;7.80;;;12.00;99.90;;;;;;5077204;28;20172;-71
2023/03/19 02:58:54;;;;;;;9.07;8.13;;;12.00;99.90;;;;;;5095141;28;20563;-71
2023/03/19 03:01:20;;;;;;;9.97;8.13;;;12.00;99.90;;;;;;5095074;28;20192;-71
2023/03/19 03:03:46;;;;;;;8.80;8.00;;;12.10;99.90;;;;;;5094933;28;20263;-71
2023/03/19 03:06:11;;;;;;;9.53;8.53;;;12.10;99.90;;;;;;5094781;28;20591;-71
2023/03/19 03:08:37;;;;;;;9.73;8.83;;;12.10;99.90;;;;;;5076708;28;20172;-72
2023/03/19 03:11:03;;;;;;;9.43;8.50;;;12.10;99.90;;;;;;5094895;28;20643;-72
2023/03/19 03:13:29;;;;;;;9.27;8.37;;;12.10;99.90;;;;;;5095173;28;20190;-71
2023/03/19 03:15:54;;;;;;;10.00;8.77;;;12.10;99.90;;;;;;5094507;28;20694;-71
2023/03/19 03:18:20;;;;;;;11.33;9.97;;;12.10;99.90;;;;;;5094856;28;20175;-71
2023/03/19 03:20:46;;;;;;;11.50;9.20;;;12.10;99.90;;;;;;5094617;28;20592;-71
2023/03/19 03:23:11;;;;;;;10.53;9.43;;;12.00;99.90;;;;;;5076630;28;20566;-71
2023/03/19 03:25:37;;;;;;;11.83;9.80;;;12.00;99.90;;;;;;5094522;28;20792;-71
2023/03/19 03:28:03;;;;;;;10.87;9.33;;;11.90;99.90;;;;;;5094738;28;20175;-71
2023/03/19 03:30:29;;;;;;;10.70;9.77;;;11.90;99.90;;;;;;5094641;28;20259;-71
2023/03/19 03:32:55;;;;;;;11.63;9.93;;;11.90;99.90;;;;;;5094665;28;20655;-71
2023/03/19 03:35:21;;;;;;;11.10;9.97;;;11.90;99.90;;;;;;5094221;28;20251;-71
2023/03/19 03:37:48;;;;;;;12.27;9.93;;;11.90;99.90;;;;;;5094436;28;20602;-70
2023/03/19 03:40:15;;;;;;;11.60;10.00;;;11.80;99.90;;;;;;5094336;28;20164;-71
2023/03/19 03:42:41;;;;;;;11.20;10.03;;;11.70;99.90;;;;;;5094490;28;20172;-70
2023/03/19 03:45:09;;;;;;;14.20;10.70;;;11.60;99.90;;;;;;5094307;28;20234;-70
2023/03/19 03:47:36;;;;;;;12.87;11.40;;;11.50;99.90;;;;;;5094335;28;20176;-70
2023/03/19 03:50:03;;;;;;;12.50;11.23;;;11.40;99.90;;;;;;5075680;28;20587;-70
2023/03/19 03:52:30;;;;;;;15.50;12.13;;;11.30;99.90;;;;;;5094119;28;20167;-71
2023/03/19 03:54:59;;;;;;;14.30;11.90;;;11.30;99.90;;;;;;5094162;28;20171;-71
2023/03/19 03:57:26;;;;;;;15.73;12.10;;;11.20;99.90;;;;;;5075899;28;20171;-71
2023/03/19 03:59:52;;;;;;;14.17;12.40;;;11.10;99.90;;;;;;5093939;28;20176;-71
2023/03/19 04:02:17;;;;;;;15.77;13.53;;;11.10;99.90;;;;;;5094020;28;20183;-71
2023/03/19 04:04:43;;;;;;;16.93;13.50;;;11.10;99.90;;;;;;5093568;28;20302;-71
2023/03/19 04:07:09;;;;;;;14.40;12.87;;;11.00;99.90;;;;;;5075662;28;20659;-71
2023/03/19 04:09:35;;;;;;;20.43;14.00;;;10.90;99.90;;;;;;5093860;28;20160;-71
2023/03/19 04:12:01;;;;;;;18.37;13.80;;;10.90;99.90;;;;;;5075697;28;20650;-71
2023/03/19 04:14:26;;;;;;;16.80;13.93;;;10.90;99.90;;;;;;5075616;28;20600;-71
2023/03/19 04:16:52;;;;;;;17.57;13.70;;;10.80;99.90;;;;;;5093534;28;20266;-71
2023/03/19 04:19:19;;;;;;;16.90;13.60;;;10.80;99.90;;;;;;5093202;28;20174;-71
2023/03/19 04:21:44;;;;;;;20.03;13.57;;;10.80;99.90;;;;;;5093490;28;20552;-71
2023/03/19 04:24:10;;;;;;;16.70;12.43;;;10.70;99.90;;;;;;5093707;28;20171;-71
2023/03/19 04:26:36;;;;;;;18.13;11.83;;;10.80;99.90;;;;;;5093288;28;20294;-71
2023/03/19 04:29:03;;;;;;;15.63;12.03;;;10.70;99.90;;;;;;5074998;28;20266;-70
2023/03/19 04:31:28;;;;;;;13.50;11.10;;;10.70;99.90;;;;;;5075197;28;20175;-71
2023/03/19 04:33:54;;;;;;;14.50;9.83;;;10.60;99.90;;;;;;5074898;28;20237;-72
2023/03/19 04:36:20;;;;;;;16.60;10.13;;;10.60;99.90;;;;;;5093435;28;20642;-71
2023/03/19 04:38:45;;;;;;;14.80;10.13;;;10.60;99.90;;;;;;5093196;28;20168;-70
2023/03/19 04:41:12;;;;;;;14.90;10.23;;;10.50;99.90;;;;;;5093287;28;20179;-71
2023/03/19 04:43:38;;;;;;;11.40;10.20;;;10.50;99.90;;;;;;5093243;28;20515;-71
2023/03/19 04:46:06;;;;;;;13.43;10.43;;;10.50;99.90;;;;;;5092776;28;20223;-71
2023/03/19 04:48:34;;;;;;;13.07;10.60;;;10.50;99.90;;;;;;5092641;28;20168;-72
2023/03/19 04:51:01;;;;;;;15.27;11.63;;;10.40;99.90;;;;;;5093280;28;20627;-71
2023/03/19 04:53:27;;;;;;;15.10;11.30;;;10.30;99.90;;;;;;5093333;28;20164;-71
2023/03/19 04:55:53;;;;;;;13.40;11.53;;;10.30;99.90;;;;;;5093192;28;20250;-71
2023/03/19 04:58:19;;;;;;;15.10;12.67;;;10.30;99.90;;;;;;5093133;28;20647;-71
2023/03/19 05:00:46;;;;;;;14.70;12.97;;;10.30;99.90;;;;;;5093117;28;20172;-70
2023/03/19 05:03:15;;;;;;;17.37;13.80;;;10.30;99.90;;;;;;5074205;28;20504;-71
2023/03/19 05:05:41;;;;;;;20.60;13.57;;;10.40;99.90;;;;;;5074721;28;20215;-71
2023/03/19 05:08:08;;;;;;;20.30;15.17;;;10.40;99.90;;;;;;5092531;28;20694;-72
2023/03/19 05:10:35;;;;;;;17.03;13.57;;;10.30;99.90;;;;;;5093090;28;20242;-70
2023/03/19 05:13:01;;;;;;;19.47;13.77;;;10.30;99.90;;;;;;5092701;28;20175;-71
2023/03/19 05:15:26;;;;;;;16.43;12.60;;;10.30;99.90;;;;;;5092856;28;20211;-69
2023/03/19 05:17:52;;;;;;;17.43;12.93;;;10.20;99.90;;;;;;5092458;28;20160;-71
2023/03/19 05:20:18;;;;;;;16.23;13.13;;;10.20;99.90;;;;;;5092798;28;20564;-71
2023/03/19 05:22:45;;;;;;;19.17;15.00;;;10.20;99.90;;;;;;5092847;28;20168;-71
2023/03/19 05:25:11;;;;;;;16.40;13.57;;;10.20;99.90;;;;;;5073971;28;20199;-71
2023/03/19 05:27:36;;;;;;;15.10;13.10;;;10.10;99.90;;;;;;5092626;28;20164;-71
2023/03/19 05:30:03;;;;;;;17.87;12.83;;;10.10;99.90;;;;;;5092882;28;20732;-71
2023/03/19 05:32:29;;;;;;;15.93;13.00;;;10.10;99.90;;;;;;5092318;28;20213;-72
2023/03/19 05:34:55;;;;;;;15.40;13.10;;;10.00;99.90;;;;;;5092965;28;20251;-71
2023/03/19 05:37:20;;;;;;;20.97;13.00;;;10.00;99.90;;;;;;5092705;28;20627;-71
2023/03/19 05:39:46;;;;;;;16.63;11.67;;;10.00;99.90;;;;;;5092356;28;20708;-71
2023/03/19 05:42:13;;;;;;;17.40;11.57;;;10.00;99.90;;;;;;5092806;28;20187;-71
2023/03/19 05:44:39;;;;;;;14.83;10.37;;;9.90;99.90;;;;;;5074262;28;20168;-72
2023/03/19 05:47:05;;;;;;;13.90;10.67;;;9.90;99.90;;;;;;5092195;28;20211;-71
2023/03/19 05:49:30;;;;;;;14.27;10.00;;;9.90;99.90;;;;;;5073965;28;20176;-72
2023/03/19 05:51:56;;;;;;;14.23;9.30;;;9.90;99.90;;;;;;5092289;28;20176;-71
2023/03/19 05:54:21;;;;;;;12.03;9.57;;;9.90;99.90;;;;;;5092468;28;20172;-72
2023/03/19 05:56:47;;;;;;;16.67;9.97;;;9.90;99.90;;;;;;5074602;28;20238;-71
2023/03/19 05:59:13;;;;;;;11.67;9.40;;;9.90;99.90;;;;;;5095967;28;20172;-72
2023/03/19 06:01:38;;;;;;;16.27;8.73;;;9.90;99.90;;;;;;5095751;28;20194;-72
2023/03/19 06:04:04;;;;;;;11.53;8.57;;;10.00;99.90;;;;;;5077628;28;20207;-71
2023/03/19 06:06:30;;;;;;;14.63;8.17;;;10.00;99.90;;;;;;5096009;28;20212;-71
2023/03/19 06:08:55;;;;;;;11.90;8.07;;;10.00;99.90;;;;;;5096000;28;20243;-71
2023/03/19 06:11:21;;;;;;;11.10;7.90;;;10.00;99.90;;;;;;5095589;28;20180;-71
2023/03/19 06:13:46;;;;;;;14.47;7.57;;;10.10;99.90;;;;;;5095936;28;20168;-71
2023/03/19 06:16:12;;;;;;;10.07;7.77;;;10.20;99.90;;;;;;5095078;28;20578;-72
2023/03/19 06:18:38;;;;;;;10.57;6.93;;;10.20;99.90;;;;;;5095832;28;20168;-72
2023/03/19 06:21:04;;;;;;;11.50;7.00;;;10.20;99.90;;;;;;5095569;28;20171;-71
2023/03/19 06:23:30;;;;;;;10.87;6.60;;;10.30;99.90;;;;;;5095823;28;20241;-70
2023/03/19 06:25:56;;;;;;;8.53;6.90;;;10.30;99.90;;;;;;5095453;28;20298;-71
2023/03/19 06:28:21;;;;;;;11.87;7.00;;;10.40;99.90;;;;;;5095738;28;20218;-73
2023/03/19 06:30:47;;;;;;;10.63;6.20;;;10.50;99.90;;;;;;5095320;28;20203;-72
2023/03/19 06:33:13;;;;;;;9.90;7.03;;;10.40;99.90;;;;;;5095581;28;20168;-71
2023/03/19 06:35:39;;;;;;;9.00;6.77;;;10.40;99.90;;;;;;5095701;28;20221;-71
2023/03/19 06:38:06;;;;;;;13.17;6.97;;;10.30;99.90;;;;;;5095659;28;20187;-71
2023/03/19 06:40:31;;;;;;;12.13;7.00;;;10.40;99.90;;;;;;5077055;28;20180;-71
2023/03/19 06:42:57;;;;;;;8.17;6.90;;;10.30;99.90;;;;;;5076811;28;20198;-71
2023/03/19 06:45:23;;;;;;;8.73;7.10;;;10.30;99.90;;;;;;5095108;28;20199;-71
2023/03/19 06:47:49;;;;;;;11.37;7.17;;;10.30;99.90;;;;;;5094620;28;20210;-71
2023/03/19 06:50:15;;;;;;;11.43;6.50;;;10.30;99.90;;;;;;5095152;28;20259;-71
2023/03/19 06:52:41;;;;;;;9.30;7.10;;;10.30;99.90;;;;;;5076522;28;20605;-71
2023/03/19 06:55:08;;;;;;;7.83;6.83;;;10.40;99.90;;;;;;5095394;28;20185;-71
2023/03/19 06:57:34;;;;;;;9.57;6.10;;;10.50;99.90;;;;;;5094431;28;20172;-71
2023/03/19 07:00:00;;;;;;;11.43;6.87;;;10.70;99.90;;;;;;5094831;28;20184;-71
2023/03/19 07:02:26;;;;;;;9.53;6.37;;;11.20;99.90;;;;;;5094871;28;20213;-71
2023/03/19 07:04:52;;;;;;;11.03;5.50;;;11.70;99.90;;;;;;5094921;28;20547;-71
2023/03/19 07:07:18;;;;;;;7.23;5.17;;;12.80;99.90;;;;;;5094907;28;20661;-72
2023/03/19 07:09:43;;;;;;;7.07;5.17;;;14.20;93.00;;;;;;5094552;28;20692;-71
2023/03/19 07:12:12;;;;;;;6.17;4.27;;;15.50;20.90;;;;;;5094092;28;20170;-72
2023/03/19 07:14:37;;;;;;;7.03;4.23;;;16.70;1.00;;;;;;5094336;28;20168;-72
2023/03/19 07:17:03;;;;;;;9.70;4.63;;;18.40;1.00;;;;;;5094399;28;20642;-72
2023/03/19 07:19:29;;;;;;;5.05;4.32;;;19.10;1.00;;;;;;5076376;28;20534;-73
2023/03/19 07:21:57;;;;;;;5.15;4.00;;;19.80;1.00;;;;;;5076032;28;20168;-73
2023/03/19 07:24:23;;;;;;;6.80;4.00;;;20.00;1.00;;;;;;5076021;28;20172;-73
2023/03/19 07:26:51;;;;;;;6.25;4.00;;;20.00;99.90;;;;;;5094162;28;20207;-73
2023/03/19 07:29:17;;;;;;;6.20;4.13;;;19.80;99.90;;;;;;5094374;28;20171;-74
2023/03/19 07:31:42;;;;;;;7.03;4.20;;;20.40;1.00;;;;;;5094431;28;20168;-73
2023/03/19 07:34:08;;;;;;;5.60;4.00;;;20.90;1.00;;;;;;5094211;28;20631;-74
2023/03/19 07:36:33;;;;;;;4.70;4.00;;;21.20;99.90;;;;;;5094419;28;20214;-73
2023/03/19 07:38:59;;;;;;;5.28;4.30;;;21.80;1.00;;;;;;5094022;28;20638;-73
2023/03/19 07:41:25;;;;;;;6.55;4.57;;;21.50;99.90;;;;;;5075444;28;20263;-73
2023/03/19 07:43:50;;;;;;;8.93;4.85;;;21.70;1.00;;;;;;5094369;28;20172;-73
2023/03/19 07:46:16;;;;;;;7.22;4.47;;;22.20;84.20;;;;;;5093922;28;20222;-75
2023/03/19 07:48:42;;;;;;;6.40;4.53;;;22.90;1.00;;;;;;5075888;28;20168;-75
2023/03/19 07:51:07;;;;;;;9.85;4.93;;;22.70;1.00;;;;;;5093332;28;20171;-76
2023/03/19 07:53:33;;;;;;;4.68;3.55;;;23.00;1.00;;;;;;5094147;28;20174;-75
2023/03/19 07:55:59;;;;;;;7.82;4.60;;;23.50;1.00;;;;;;5093569;28;20530;-73
2023/03/19 07:58:25;;;;;;;6.10;4.45;;;23.40;99.90;;;;;;5093896;28;20176;-74
2023/03/19 08:00:52;;;;;;;6.90;4.60;;;23.10;1.00;;;;;;5093601;28;20683;-74
2023/03/19 08:03:18;;;;;;;5.32;4.00;;;23.60;1.00;;;;;;5093691;28;20496;-75
2023/03/19 08:05:46;;;;;;;7.78;4.13;;;24.60;1.00;;;;;;5093653;28;20208;-75
2023/03/19 08:08:12;;;;;;;7.70;4.32;;;24.00;1.00;;;;;;5075455;28;20669;-75
2023/03/19 08:10:37;;;;;;;6.95;3.97;;;24.20;1.00;;;;;;5092965;28;20172;-75
2023/03/19 08:13:04;;;;;;;7.75;4.45;;;25.20;1.00;;;;;;5093269;28;20666;-75
2023/03/19 08:15:29;;;;;;;7.68;4.50;;;25.00;99.90;;;;;;5093084;28;20284;-75
2023/03/19 08:18:03;;;;;;;6.97;3.72;;;25.50;83.60;;;;;;5093486;28;20639;-75
2023/03/19 08:20:29;;;;;;;6.93;3.78;;;25.20;99.90;;;;;;5092562;28;20705;-76
2023/03/19 08:22:56;;;;;;;7.35;4.10;;;25.70;99.90;;;;;;5093522;28;20180;-76
2023/03/19 08:25:22;;;;;;;7.68;4.13;;;25.70;1.00;;;;;;5092653;28;20209;-76
2023/03/19 08:27:48;;;;;;;5.97;4.30;;;25.90;1.00;;;;;;5093389;28;20643;-77
2023/03/19 08:30:13;;;;;;;6.50;4.18;;;26.80;1.00;;;;;;5093781;28;20240;-75
2023/03/19 08:32:39;;;;;;;7.40;3.85;;;26.90;1.00;;;;;;5093416;28;20671;-75
2023/03/19 08:35:05;;;;;;;7.90;4.10;;;26.90;1.00;;;;;;5093075;28;20658;-76
2023/03/19 08:37:31;;;;;;;6.57;4.18;;;27.20;1.00;;;;;;5093057;28;20190;-78
2023/03/19 08:39:57;;;;;;;6.57;4.18;;;25.90;1.00;;;;;;5092796;28;20172;-75
2023/03/19 08:42:23;;;;;;;9.13;4.50;;;26.20;1.00;;;;;;5093061;28;20175;-77
2023/03/19 08:44:49;;;;;;;5.13;3.83;;;26.60;1.00;;;;;;5092970;28;20179;-78
2023/03/19 08:47:15;;;;;;;7.85;4.10;;;26.30;1.00;;;;;;5093022;28;20693;-78
2023/03/19 08:49:41;;;;;;;7.78;3.95;;;27.00;1.00;;;;;;5092804;28;20172;-77
2023/03/19 08:52:07;;;;;;;7.68;3.40;;;26.80;1.00;;;;;;5093020;28;20229;-76
2023/03/19 08:54:33;;;;;;;6.00;3.75;;;26.20;1.00;;;;;;5074886;28;20168;-75
2023/03/19 08:57:00;;;;;;;7.60;4.00;;;25.00;1.00;;;;;;5093286;28;20199;-76
2023/03/19 08:59:26;;;;;;;8.63;3.70;;;24.10;1.00;;;;;;5074252;28;20172;-76
2023/03/19 09:01:52;;;;;;;7.65;3.75;;;23.60;99.90;;;;;;5092885;28;20241;-76
2023/03/19 09:04:21;;;;;;;7.53;3.10;;;23.10;99.90;;;;;;5092700;28;20233;-77
2023/03/19 09:06:50;;;;;;;7.57;3.33;;;22.20;1.00;;;;;;5092770;28;20214;-77
2023/03/19 09:09:20;;;;;;;8.57;3.47;;;22.10;99.90;;;;;;5092751;28;20180;-76
2023/03/19 09:11:46;;;;;;;9.35;3.92;;;22.10;99.90;;;;;;5093111;28;20175;-76
2023/03/19 09:14:15;;;;;;;7.45;3.63;;;21.80;1.00;;;;;;5092320;28;20168;-75
2023/03/19 09:16:41;;;;;;;8.13;4.07;;;20.60;99.90;;;;;;5092622;28;20678;-75
2023/03/19 09:19:07;;;;;;;11.00;4.20;;;19.90;1.00;;;;;;5092301;28;20168;-74
2023/03/19 09:21:33;;;;;;;7.57;4.03;;;19.20;89.70;;;;;;5092539;28;20650;-74
2023/03/19 09:23:59;;;;;;;8.68;4.03;;;18.50;1.00;;;;;;5091999;28;20206;-74
2023/03/19 09:26:24;;;;;;;9.68;4.00;;;17.80;1.00;;;;;;5092699;28;20200;-74
2023/03/19 09:28:50;;;;;;;10.40;4.50;;;17.20;1.00;;;;;;5092266;28;20246;-75
2023/03/19 09:31:16;;;;;;;9.73;4.82;;;16.50;1.00;;;;;;5094075;28;20175;-74
2023/03/19 09:33:41;;;;;;;8.25;4.03;;;16.00;1.00;;;;;;5096328;28;20195;-74
2023/03/19 09:36:07;;;;;;;10.57;4.60;;;15.70;1.00;;;;;;5061436;28;20179;-74
2023/03/19 09:38:33;;;;;;;11.93;5.47;;;15.50;1.00;;;;;;5095794;28;20602;-74
2023/03/19 09:41:19;;;;;;;11.70;5.23;;;15.40;1.00;;;;;;5096229;28;20273;-73
2023/03/19 09:44:01;;;;;;;10.67;5.20;;;15.60;1.00;;;;;;5096583;28;20175;-73
2023/03/19 09:47:01;;;;;;;9.90;5.60;;;15.60;1.00;;;;;;5095445;28;20241;-74
2023/03/19 09:49:31;;;;;;;8.93;4.90;;;15.50;1.00;;;;;;5084451;28;20627;-74
2023/03/19 09:52:18;;;;;;;11.77;5.47;;;15.30;1.00;;;;;;5096095;28;20175;-74
2023/03/19 09:54:51;;;;;;;10.77;5.10;;;15.20;1.00;;;;;;5096251;28;20174;-74
2023/03/19 09:57:17;;;;;;;11.60;4.93;;;15.10;1.00;;;;;;5095841;28;20172;-74
2023/03/19 09:59:43;;;;;;;9.70;5.10;;;15.30;1.00;;;;;;5095456;28;20262;-74
2023/03/19 10:02:34;;;;;;;11.03;5.40;;;15.30;1.00;;;;;;5095995;28;20188;-74
2023/03/19 10:05:11;;;;;;;10.17;5.40;;;15.10;1.00;;;;;;5095868;28;20174;-74
2023/03/19 10:08:08;;;;;;;10.90;5.20;;;15.00;1.00;;;;;;5095706;28;20172;-74
2023/03/19 10:11:12;;;;;;;13.47;5.80;;;15.10;1.00;;;;;;5095865;28;20180;-74
2023/03/19 10:14:09;;;;;;;13.33;5.40;;;15.10;1.00;;;;;;5073428;28;20179;-73
2023/03/19 10:16:38;;;;;;;10.53;5.57;;;14.90;1.00;;;;;;5094716;28;20243;-74
2023/03/19 10:19:05;;;;;;;11.90;5.20;;;15.00;1.00;;;;;;5077168;28;20171;-73
2023/03/19 10:21:33;;;;;;;11.37;5.30;;;15.20;1.00;;;;;;5095122;28;20167;-74
2023/03/19 10:23:59;;;;;;;14.33;5.60;;;15.40;1.00;;;;;;5077558;28;20209;-72
2023/03/19 10:26:34;;;;;;;10.27;5.20;;;15.60;1.00;;;;;;5095384;28;20645;-73
2023/03/19 10:29:13;;;;;;;11.87;6.10;;;15.60;1.00;;;;;;5077112;28;20205;-74
2023/03/19 10:31:54;;;;;;;12.50;5.70;;;15.80;1.00;;;;;;5095596;28;20190;-74
2023/03/19 10:34:31;;;;;;;11.20;5.60;;;16.00;1.00;;;;;;5095306;28;20206;-73
2023/03/19 10:36:59;;;;;;;11.17;5.40;;;16.30;1.00;;;;;;5095124;28;20220;-74
2023/03/19 10:39:26;;;;;;;12.20;5.80;;;16.60;1.00;;;;;;5095220;28;20176;-74
2023/03/19 10:42:10;;;;;;;9.32;5.45;;;16.90;1.00;;;;;;5094711;28;20172;-74
2023/03/19 10:44:42;;;;;;;8.88;4.97;;;17.20;1.00;;;;;;5094834;28;20256;-74
2023/03/19 10:47:13;;;;;;;13.93;5.90;;;17.20;1.00;;;;;;5095100;28;20306;-74
2023/03/19 10:49:39;;;;;;;11.60;5.85;;;16.80;1.00;;;;;;5093968;28;20267;-74
2023/03/19 10:52:15;;;;;;;12.70;6.10;;;16.90;1.00;;;;;;5095128;28;20251;-73
2023/03/19 10:54:43;;;;;;;13.75;5.95;;;16.40;1.00;;;;;;5095006;28;20518;-75
2023/03/19 10:57:21;;;;;;;12.10;6.00;;;16.40;1.00;;;;;;5094453;28;20623;-74
2023/03/19 10:59:47;;;;;;;9.50;5.72;;;16.20;1.00;;;;;;5094773;28;20272;-74
2023/03/19 11:02:19;;;;;;;9.05;5.85;;;16.20;1.00;;;;;;5094834;28;20277;-74
2023/03/19 11:04:45;;;;;;;8.38;5.88;;;15.90;1.00;;;;;;5093925;28;20251;-74
2023/03/19 11:07:20;;;;;;;11.73;6.30;;;15.70;1.00;;;;;;5094840;28;20282;-73
2023/03/19 11:09:48;;;;;;;9.67;6.40;;;15.00;1.00;;;;;;5094747;28;20171;-73
2023/03/19 11:12:19;;;;;;;10.87;7.43;;;14.80;10.30;;;;;;5094107;28;20627;-74
2023/03/19 11:14:56;;;;;;;16.53;7.60;;;14.60;17.20;;;;;;5093806;28;20187;-75
2023/03/19 11:17:28;;;;;;;11.10;7.30;;;14.60;21.40;;;;;;5094464;28;20195;-73
2023/03/19 11:19:56;;;;;;;11.03;7.13;;;14.30;24.30;;;;;;5093781;28;20187;-74
2023/03/19 11:22:27;;;;;;;11.80;7.13;;;14.30;27.90;;;;;;5094421;28;20175;-73
2023/03/19 11:24:56;;;;;;;12.73;7.60;;;14.30;30.50;;;;;;5094417;28;20639;-73
2023/03/19 11:27:33;;;;;;;14.93;6.70;;;14.80;24.60;;;;;;5093887;28;20215;-74
2023/03/19 11:30:00;;;;;;;13.93;6.53;;;15.20;5.50;;;;;;5094227;28;20195;-73
2023/03/19 11:32:28;;;;;;;13.03;6.17;;;15.50;1.00;;;;;;5094382;28;20255;-73
2023/03/19 11:35:00;;;;;;;14.20;6.93;;;15.80;1.00;;;;;;5093578;28;20240;-74
2023/03/19 11:37:55;;;;;;;12.53;7.00;;;15.70;1.00;;;;;;5076230;28;20643;-73
2023/03/19 11:40:36;;;;;;;10.77;6.57;;;15.90;1.00;;;;;;5093632;28;20176;-74
2023/03/19 11:43:29;;;;;;;14.23;6.87;;;15.90;1.00;;;;;;5093991;28;20622;-74
2023/03/19 11:46:31;;;;;;;11.77;6.70;;;15.60;1.00;;;;;;5093295;28;20229;-73
2023/03/19 11:49:06;;;;;;;9.47;6.70;;;15.60;1.00;;;;;;5093099;28;20197;-74
2023/03/19 11:51:50;;;;;;;11.30;7.10;;;15.80;1.00;;;;;;5093552;28;20174;-73
2023/03/19 11:54:31;;;;;;;15.27;7.80;;;15.80;1.00;;;;;;5093381;28;20175;-73
2023/03/19 11:57:07;;;;;;;10.43;7.37;;;16.00;1.00;;;;;;5093602;28;20175;-73
2023/03/19 11:59:59;;;;;;;12.50;7.97;;;15.80;1.00;;;;;;5093855;28;20257;-73
2023/03/19 12:02:47;;;;;;;8.95;7.75;;;16.00;1.00;;;;;;5093395;28;20184;-73
2023/03/19 12:05:18;;;;;;;13.20;8.23;;;15.90;1.00;;;;;;5093384;28;20171;-74
2023/03/19 12:08:10;;;;;;;17.73;9.63;;;16.10;1.00;;;;;;5093460;28;20172;-74
2023/03/19 12:10:42;;;;;;;17.17;10.27;;;16.00;1.00;;;;;;5093015;28;20202;-74
2023/03/19 12:13:14;;;;;;;14.87;9.53;;;16.10;1.00;;;;;;5093412;28;20160;-74
2023/03/19 12:16:12;;;;;;;15.13;10.33;;;15.80;1.00;;;;;;5071324;28;20220;-73
2023/03/19 12:18:51;;;;;;;17.57;9.93;;;15.80;1.00;;;;;;5071060;28;20175;-73
2023/03/19 12:21:52;;;;;;;18.47;10.70;;;15.90;1.00;;;;;;5072494;28;20476;-73
2023/03/19 12:24:43;;;;;;;16.13;10.27;;;16.20;1.00;;;;;;5029568;28;20248;-75
2023/03/19 12:27:27;;;;;;;12.33;9.67;;;16.00;1.00;;;;;;5072685;28;20196;-74
2023/03/19 12:30:16;;;;;;;130.05;112.82;;;16.00;1.00;;;;;;5072950;28;20193;-74
2023/03/19 12:33:16;;;;;;;17.25;12.50;;;15.90;1.00;;;;;;5072498;28;20650;-73
2023/03/19 12:35:48;;;;;;;14.30;10.60;;;15.80;1.00;;;;;;5072375;28;20179;-73
2023/03/19 12:38:26;;;;;;;14.83;10.03;;;15.20;1.00;;;;;;5072736;28;20172;-73
2023/03/19 12:41:09;;;;;;;16.87;10.90;;;15.00;8.20;;;;;;5072321;28;20631;-73
2023/03/19 12:43:37;;;;;;;11.10;9.30;;;15.20;7.30;;;;;;5071552;28;20211;-72
2023/03/19 12:46:13;;;;;;;15.13;10.27;;;15.50;1.30;;;;;;5072314;28;20604;-74
2023/03/19 12:48:50;;;;;;;11.03;9.67;;;15.80;1.00;;;;;;5070762;28;20235;-74
2023/03/19 12:51:23;;;;;;;11.32;9.45;;;16.10;1.00;;;;;;5072519;28;20160;-74
2023/03/19 12:54:01;;;;;;;13.90;9.93;;;16.00;1.00;;;;;;5073062;28;20164;-74